sensor_id;sensor_type;location;lat;lon;timestamp;temperature;humidity
34145;HTU21D;69555;53.014;8.886;2023-12-29T00:02:21;10.66;83.89
34145;HTU21D;69555;53.014;8.886;2023-12-29T00:04:48;10.62;84.02
34145;HTU21D;69555;53.014;8.886;2023-12-29T00:07:15;10.69;84.43
34145;HTU21D;69555;53.014;8.886;2023-12-29T00:09:41;10.59;85.14
34145;HTU21D;69555;53.014;8.886;2023-12-29T00:12:07;10.56;85.03
34145;HTU21D;69555;53.014;8.886;2023-12-29T00:14:39;10.56;85.43
34145;HTU21D;69555;53.014;8.886;2023-12-29T00:17:05;10.51;85.80
34145;HTU21D;69555;53.014;8.886;2023-12-29T00:19:32;10.52;85.76
34145;HTU21D;69555;53.014;8.886;2023-12-29T00:21:59;10.48;86.81
34145;HTU21D;69555;53.014;8.886;2023-12-29T00:24:26;10.46;87.12
34145;HTU21D;69555;53.014;8.886;2023-12-29T00:26:53;10.50;86.62
34145;HTU21D;69555;53.014;8.886;2023-12-29T00:29:19;10.46;87.52
34145;HTU21D;69555;53.014;8.886;2023-12-29T00:31:46;10.43;87.67
34145;HTU21D;69555;53.014;8.886;2023-12-29T00:34:13;10.34;88.25
34145;HTU21D;69555;53.014;8.886;2023-12-29T00:36:39;10.33;88.26
34145;HTU21D;69555;53.014;8.886;2023-12-29T00:39:06;10.31;89.71
34145;HTU21D;69555;53.014;8.886;2023-12-29T00:41:33;10.33;88.39
34145;HTU21D;69555;53.014;8.886;2023-12-29T00:43:59;10.27;89.02
34145;HTU21D;69555;53.014;8.886;2023-12-29T00:46:26;10.24;88.97
34145;HTU21D;69555;53.014;8.886;2023-12-29T00:48:53;10.22;89.09
34145;HTU21D;69555;53.014;8.886;2023-12-29T00:51:20;10.22;89.27
34145;HTU21D;69555;53.014;8.886;2023-12-29T00:53:46;10.30;88.51
34145;HTU21D;69555;53.014;8.886;2023-12-29T00:56:13;10.26;88.83
34145;HTU21D;69555;53.014;8.886;2023-12-29T00:58:39;10.23;89.76
34145;HTU21D;69555;53.014;8.886;2023-12-29T01:01:07;10.23;89.76
34145;HTU21D;69555;53.014;8.886;2023-12-29T01:03:34;10.26;89.41
34145;HTU21D;69555;53.014;8.886;2023-12-29T01:06:01;10.29;89.12
34145;HTU21D;69555;53.014;8.886;2023-12-29T01:08:29;10.30;89.28
34145;HTU21D;69555;53.014;8.886;2023-12-29T01:10:54;10.27;90.16
34145;HTU21D;69555;53.014;8.886;2023-12-29T01:13:21;10.27;89.98
34145;HTU21D;69555;53.014;8.886;2023-12-29T01:15:47;10.27;89.95
34145;HTU21D;69555;53.014;8.886;2023-12-29T01:18:14;10.31;89.80
34145;HTU21D;69555;53.014;8.886;2023-12-29T01:20:41;10.33;90.07
34145;HTU21D;69555;53.014;8.886;2023-12-29T01:23:08;10.34;90.24
34145;HTU21D;69555;53.014;8.886;2023-12-29T01:25:35;10.25;92.04
34145;HTU21D;69555;53.014;8.886;2023-12-29T01:28:02;10.13;93.88
34145;HTU21D;69555;53.014;8.886;2023-12-29T01:30:29;9.98;95.47
34145;HTU21D;69555;53.014;8.886;2023-12-29T01:32:56;10.00;94.32
34145;HTU21D;69555;53.014;8.886;2023-12-29T01:35:22;9.97;94.88
34145;HTU21D;69555;53.014;8.886;2023-12-29T01:37:49;9.97;94.36
34145;HTU21D;69555;53.014;8.886;2023-12-29T01:40:17;10.04;93.29
34145;HTU21D;69555;53.014;8.886;2023-12-29T01:42:44;10.03;93.75
34145;HTU21D;69555;53.014;8.886;2023-12-29T01:45:21;10.01;94.02
34145;HTU21D;69555;53.014;8.886;2023-12-29T01:47:49;10.01;93.93
34145;HTU21D;69555;53.014;8.886;2023-12-29T01:50:18;9.96;95.14
34145;HTU21D;69555;53.014;8.886;2023-12-29T01:52:47;9.84;96.62
34145;HTU21D;69555;53.014;8.886;2023-12-29T01:55:18;9.70;97.94
34145;HTU21D;69555;53.014;8.886;2023-12-29T01:57:45;9.64;98.87
34145;HTU21D;69555;53.014;8.886;2023-12-29T02:00:13;9.60;99.82
34145;HTU21D;69555;53.014;8.886;2023-12-29T02:02:46;9.56;100.09
34145;HTU21D;69555;53.014;8.886;2023-12-29T02:05:13;9.51;99.59
34145;HTU21D;69555;53.014;8.886;2023-12-29T02:07:41;9.56;99.64
34145;HTU21D;69555;53.014;8.886;2023-12-29T02:10:09;9.57;99.55
34145;HTU21D;69555;53.014;8.886;2023-12-29T02:12:40;9.62;99.26
34145;HTU21D;69555;53.014;8.886;2023-12-29T02:15:07;9.61;99.64
34145;HTU21D;69555;53.014;8.886;2023-12-29T02:17:39;9.63;98.87
34145;HTU21D;69555;53.014;8.886;2023-12-29T02:20:05;9.60;99.16
34145;HTU21D;69555;53.014;8.886;2023-12-29T02:22:32;9.63;99.23
34145;HTU21D;69555;53.014;8.886;2023-12-29T02:24:59;9.61;99.38
34145;HTU21D;69555;53.014;8.886;2023-12-29T02:30:29;9.60;99.92
34145;HTU21D;69555;53.014;8.886;2023-12-29T02:33:01;9.56;100.25
34145;HTU21D;69555;53.014;8.886;2023-12-29T02:35:28;9.50;101.69
34145;HTU21D;69555;53.014;8.886;2023-12-29T02:37:58;9.42;102.47
34145;HTU21D;69555;53.014;8.886;2023-12-29T02:40:25;9.40;103.01
34145;HTU21D;69555;53.014;8.886;2023-12-29T02:42:52;9.37;103.47
34145;HTU21D;69555;53.014;8.886;2023-12-29T02:45:19;9.29;104.12
34145;HTU21D;69555;53.014;8.886;2023-12-29T02:47:46;9.32;103.78
34145;HTU21D;69555;53.014;8.886;2023-12-29T02:50:12;9.32;103.43
34145;HTU21D;69555;53.014;8.886;2023-12-29T02:52:39;9.37;103.05
34145;HTU21D;69555;53.014;8.886;2023-12-29T02:55:05;9.41;103.37
34145;HTU21D;69555;53.014;8.886;2023-12-29T02:57:32;9.42;102.69
34145;HTU21D;69555;53.014;8.886;2023-12-29T02:59:59;9.47;101.64
34145;HTU21D;69555;53.014;8.886;2023-12-29T03:02:26;9.50;101.12
34145;HTU21D;69555;53.014;8.886;2023-12-29T03:04:52;9.48;101.35
34145;HTU21D;69555;53.014;8.886;2023-12-29T03:07:19;9.53;100.93
34145;HTU21D;69555;53.014;8.886;2023-12-29T03:09:45;9.52;101.41
34145;HTU21D;69555;53.014;8.886;2023-12-29T03:12:12;9.47;101.67
34145;HTU21D;69555;53.014;8.886;2023-12-29T03:14:39;9.44;102.90
34145;HTU21D;69555;53.014;8.886;2023-12-29T03:17:05;9.34;104.68
34145;HTU21D;69555;53.014;8.886;2023-12-29T03:19:32;9.30;105.10
34145;HTU21D;69555;53.014;8.886;2023-12-29T03:21:57;9.26;105.75
34145;HTU21D;69555;53.014;8.886;2023-12-29T03:24:23;9.27;105.28
34145;HTU21D;69555;53.014;8.886;2023-12-29T03:26:50;9.34;104.32
34145;HTU21D;69555;53.014;8.886;2023-12-29T03:29:16;9.33;104.73
34145;HTU21D;69555;53.014;8.886;2023-12-29T03:31:43;9.38;104.39
34145;HTU21D;69555;53.014;8.886;2023-12-29T03:34:10;9.41;104.15
34145;HTU21D;69555;53.014;8.886;2023-12-29T03:36:36;9.44;103.38
34145;HTU21D;69555;53.014;8.886;2023-12-29T03:39:03;9.49;102.21
34145;HTU21D;69555;53.014;8.886;2023-12-29T03:41:30;9.62;100.91
34145;HTU21D;69555;53.014;8.886;2023-12-29T03:43:56;9.64;100.41
34145;HTU21D;69555;53.014;8.886;2023-12-29T03:46:23;9.67;100.17
34145;HTU21D;69555;53.014;8.886;2023-12-29T03:48:50;9.72;98.78
34145;HTU21D;69555;53.014;8.886;2023-12-29T03:51:17;9.70;99.38
34145;HTU21D;69555;53.014;8.886;2023-12-29T03:53:44;9.72;99.19
34145;HTU21D;69555;53.014;8.886;2023-12-29T03:56:20;9.71;99.02
34145;HTU21D;69555;53.014;8.886;2023-12-29T03:58:46;9.94;95.74
34145;HTU21D;69555;53.014;8.886;2023-12-29T04:01:16;9.98;96.07
34145;HTU21D;69555;53.014;8.886;2023-12-29T04:03:43;10.01;95.23
34145;HTU21D;69555;53.014;8.886;2023-12-29T04:06:10;10.05;95.31
34145;HTU21D;69555;53.014;8.886;2023-12-29T04:08:38;10.04;95.37
34145;HTU21D;69555;53.014;8.886;2023-12-29T04:11:05;10.05;95.28
34145;HTU21D;69555;53.014;8.886;2023-12-29T04:13:32;10.03;94.98
34145;HTU21D;69555;53.014;8.886;2023-12-29T04:15:59;10.12;93.77
34145;HTU21D;69555;53.014;8.886;2023-12-29T04:18:26;10.11;93.79
34145;HTU21D;69555;53.014;8.886;2023-12-29T04:20:53;10.03;94.84
34145;HTU21D;69555;53.014;8.886;2023-12-29T04:23:18;10.00;94.45
34145;HTU21D;69555;53.014;8.886;2023-12-29T04:25:45;10.07;93.49
34145;HTU21D;69555;53.014;8.886;2023-12-29T04:28:12;10.06;93.65
34145;HTU21D;69555;53.014;8.886;2023-12-29T04:30:39;10.05;93.39
34145;HTU21D;69555;53.014;8.886;2023-12-29T04:33:05;10.10;93.42
34145;HTU21D;69555;53.014;8.886;2023-12-29T04:35:32;10.11;93.09
34145;HTU21D;69555;53.014;8.886;2023-12-29T04:37:59;10.13;93.33
34145;HTU21D;69555;53.014;8.886;2023-12-29T04:40:26;10.11;93.17
34145;HTU21D;69555;53.014;8.886;2023-12-29T04:42:52;10.06;93.57
34145;HTU21D;69555;53.014;8.886;2023-12-29T04:45:19;10.10;93.37
34145;HTU21D;69555;53.014;8.886;2023-12-29T04:47:45;10.09;93.82
34145;HTU21D;69555;53.014;8.886;2023-12-29T04:50:12;10.08;94.45
34145;HTU21D;69555;53.014;8.886;2023-12-29T04:52:39;10.06;95.22
34145;HTU21D;69555;53.014;8.886;2023-12-29T04:55:05;10.00;95.58
34145;HTU21D;69555;53.014;8.886;2023-12-29T04:57:32;9.97;95.73
34145;HTU21D;69555;53.014;8.886;2023-12-29T04:59:59;9.93;96.09
34145;HTU21D;69555;53.014;8.886;2023-12-29T05:02:25;9.99;95.33
34145;HTU21D;69555;53.014;8.886;2023-12-29T05:04:52;9.96;95.12
34145;HTU21D;69555;53.014;8.886;2023-12-29T05:07:18;10.06;93.94
34145;HTU21D;69555;53.014;8.886;2023-12-29T05:09:45;10.01;94.85
34145;HTU21D;69555;53.014;8.886;2023-12-29T05:12:11;10.00;95.39
34145;HTU21D;69555;53.014;8.886;2023-12-29T05:14:38;9.86;97.93
34145;HTU21D;69555;53.014;8.886;2023-12-29T05:17:05;9.76;98.10
34145;HTU21D;69555;53.014;8.886;2023-12-29T05:19:32;9.72;99.06
34145;HTU21D;69555;53.014;8.886;2023-12-29T05:21:58;9.70;99.18
34145;HTU21D;69555;53.014;8.886;2023-12-29T05:24:25;9.74;97.18
34145;HTU21D;69555;53.014;8.886;2023-12-29T05:26:50;9.77;97.14
34145;HTU21D;69555;53.014;8.886;2023-12-29T05:29:17;9.74;97.20
34145;HTU21D;69555;53.014;8.886;2023-12-29T05:31:43;9.79;95.81
34145;HTU21D;69555;53.014;8.886;2023-12-29T05:34:10;9.74;95.45
34145;HTU21D;69555;53.014;8.886;2023-12-29T05:36:37;9.84;94.38
34145;HTU21D;69555;53.014;8.886;2023-12-29T05:39:05;9.79;94.73
34145;HTU21D;69555;53.014;8.886;2023-12-29T05:41:32;9.82;94.06
34145;HTU21D;69555;53.014;8.886;2023-12-29T05:43:59;9.86;93.66
34145;HTU21D;69555;53.014;8.886;2023-12-29T05:46:27;9.85;94.14
34145;HTU21D;69555;53.014;8.886;2023-12-29T05:48:52;9.90;92.95
34145;HTU21D;69555;53.014;8.886;2023-12-29T05:51:18;9.89;92.56
34145;HTU21D;69555;53.014;8.886;2023-12-29T05:53:44;9.94;92.02
34145;HTU21D;69555;53.014;8.886;2023-12-29T05:56:12;9.94;92.36
34145;HTU21D;69555;53.014;8.886;2023-12-29T05:58:42;9.90;93.59
34145;HTU21D;69555;53.014;8.886;2023-12-29T06:01:09;9.84;93.51
34145;HTU21D;69555;53.014;8.886;2023-12-29T06:03:35;9.81;94.64
34145;HTU21D;69555;53.014;8.886;2023-12-29T06:06:02;9.82;93.72
34145;HTU21D;69555;53.014;8.886;2023-12-29T06:08:29;9.83;93.71
34145;HTU21D;69555;53.014;8.886;2023-12-29T06:10:56;9.77;95.07
34145;HTU21D;69555;53.014;8.886;2023-12-29T06:13:23;9.75;94.91
34145;HTU21D;69555;53.014;8.886;2023-12-29T06:15:50;9.82;93.80
34145;HTU21D;69555;53.014;8.886;2023-12-29T06:18:17;9.85;92.50
34145;HTU21D;69555;53.014;8.886;2023-12-29T06:20:43;9.82;92.76
34145;HTU21D;69555;53.014;8.886;2023-12-29T06:23:10;9.78;91.98
34145;HTU21D;69555;53.014;8.886;2023-12-29T06:25:37;9.74;92.59
34145;HTU21D;69555;53.014;8.886;2023-12-29T06:28:05;9.70;92.18
34145;HTU21D;69555;53.014;8.886;2023-12-29T06:30:33;9.77;91.05
34145;HTU21D;69555;53.014;8.886;2023-12-29T06:33:00;9.77;90.71
34145;HTU21D;69555;53.014;8.886;2023-12-29T06:35:26;9.69;90.68
34145;HTU21D;69555;53.014;8.886;2023-12-29T06:37:53;9.77;89.44
34145;HTU21D;69555;53.014;8.886;2023-12-29T06:40:19;9.71;89.70
34145;HTU21D;69555;53.014;8.886;2023-12-29T06:42:46;9.74;89.44
34145;HTU21D;69555;53.014;8.886;2023-12-29T06:45:13;9.69;89.37
34145;HTU21D;69555;53.014;8.886;2023-12-29T06:47:40;9.74;88.91
34145;HTU21D;69555;53.014;8.886;2023-12-29T06:50:07;9.77;88.07
34145;HTU21D;69555;53.014;8.886;2023-12-29T06:52:39;9.80;87.99
34145;HTU21D;69555;53.014;8.886;2023-12-29T06:55:05;9.74;88.69
34145;HTU21D;69555;53.014;8.886;2023-12-29T06:57:32;9.74;88.86
34145;HTU21D;69555;53.014;8.886;2023-12-29T07:00:18;9.70;89.10
34145;HTU21D;69555;53.014;8.886;2023-12-29T07:02:45;9.66;89.94
34145;HTU21D;69555;53.014;8.886;2023-12-29T07:05:10;9.66;90.04
34145;HTU21D;69555;53.014;8.886;2023-12-29T07:07:37;9.62;90.87
34145;HTU21D;69555;53.014;8.886;2023-12-29T07:10:04;9.64;91.03
34145;HTU21D;69555;53.014;8.886;2023-12-29T07:12:32;9.64;91.44
34145;HTU21D;69555;53.014;8.886;2023-12-29T07:14:59;9.63;91.85
34145;HTU21D;69555;53.014;8.886;2023-12-29T07:17:25;9.54;92.82
34145;HTU21D;69555;53.014;8.886;2023-12-29T07:19:51;9.56;92.93
34145;HTU21D;69555;53.014;8.886;2023-12-29T07:22:19;9.60;92.69
34145;HTU21D;69555;53.014;8.886;2023-12-29T07:24:45;9.60;92.38
34145;HTU21D;69555;53.014;8.886;2023-12-29T07:27:11;9.60;92.62
34145;HTU21D;69555;53.014;8.886;2023-12-29T07:29:38;9.56;92.72
34145;HTU21D;69555;53.014;8.886;2023-12-29T07:32:05;9.52;92.30
34145;HTU21D;69555;53.014;8.886;2023-12-29T07:34:32;9.59;92.21
34145;HTU21D;69555;53.014;8.886;2023-12-29T07:36:58;9.54;92.78
34145;HTU21D;69555;53.014;8.886;2023-12-29T07:39:25;9.63;92.11
34145;HTU21D;69555;53.014;8.886;2023-12-29T07:41:52;9.62;92.12
34145;HTU21D;69555;53.014;8.886;2023-12-29T07:44:19;9.63;91.45
34145;HTU21D;69555;53.014;8.886;2023-12-29T07:46:46;9.63;91.45
34145;HTU21D;69555;53.014;8.886;2023-12-29T07:49:13;9.59;91.16
34145;HTU21D;69555;53.014;8.886;2023-12-29T07:51:41;9.54;91.50
34145;HTU21D;69555;53.014;8.886;2023-12-29T07:54:08;9.59;91.39
34145;HTU21D;69555;53.014;8.886;2023-12-29T07:56:35;9.59;91.62
34145;HTU21D;69555;53.014;8.886;2023-12-29T07:59:03;9.57;92.04
34145;HTU21D;69555;53.014;8.886;2023-12-29T08:01:32;9.56;92.73
34145;HTU21D;69555;53.014;8.886;2023-12-29T08:03:59;9.47;93.96
34145;HTU21D;69555;53.014;8.886;2023-12-29T08:06:24;9.55;93.85
34145;HTU21D;69555;53.014;8.886;2023-12-29T08:08:51;9.53;95.40
34145;HTU21D;69555;53.014;8.886;2023-12-29T08:11:17;9.47;95.78
34145;HTU21D;69555;53.014;8.886;2023-12-29T08:13:48;9.44;96.03
34145;HTU21D;69555;53.014;8.886;2023-12-29T08:16:16;9.45;95.93
34145;HTU21D;69555;53.014;8.886;2023-12-29T08:18:46;9.39;96.18
34145;HTU21D;69555;53.014;8.886;2023-12-29T08:21:19;9.38;96.58
34145;HTU21D;69555;53.014;8.886;2023-12-29T08:23:47;9.39;96.78
34145;HTU21D;69555;53.014;8.886;2023-12-29T08:26:14;9.35;97.37
34145;HTU21D;69555;53.014;8.886;2023-12-29T08:28:41;9.40;96.86
34145;HTU21D;69555;53.014;8.886;2023-12-29T08:31:07;9.42;96.84
34145;HTU21D;69555;53.014;8.886;2023-12-29T08:33:35;9.40;96.84
34145;HTU21D;69555;53.014;8.886;2023-12-29T08:36:05;9.44;96.84
34145;HTU21D;69555;53.014;8.886;2023-12-29T08:38:33;9.45;96.58
34145;HTU21D;69555;53.014;8.886;2023-12-29T08:41:00;9.39;97.10
34145;HTU21D;69555;53.014;8.886;2023-12-29T08:43:27;9.36;97.19
34145;HTU21D;69555;53.014;8.886;2023-12-29T08:45:53;9.25;100.32
34145;HTU21D;69555;53.014;8.886;2023-12-29T08:48:20;9.11;98.01
34145;HTU21D;69555;53.014;8.886;2023-12-29T08:50:48;9.15;101.45
34145;HTU21D;69555;53.014;8.886;2023-12-29T08:53:15;9.12;102.51
34145;HTU21D;69555;53.014;8.886;2023-12-29T08:55:42;8.95;104.06
34145;HTU21D;69555;53.014;8.886;2023-12-29T08:58:08;9.20;103.78
34145;HTU21D;69555;53.014;8.886;2023-12-29T09:00:35;9.01;104.27
34145;HTU21D;69555;53.014;8.886;2023-12-29T09:03:02;8.29;98.84
34145;HTU21D;69555;53.014;8.886;2023-12-29T09:05:29;7.75;99.80
34145;HTU21D;69555;53.014;8.886;2023-12-29T09:07:55;7.49;103.43
34145;HTU21D;69555;53.014;8.886;2023-12-29T09:10:21;7.49;103.75
34145;HTU21D;69555;53.014;8.886;2023-12-29T09:12:49;7.64;103.09
34145;HTU21D;69555;53.014;8.886;2023-12-29T09:15:16;7.65;104.88
34145;HTU21D;69555;53.014;8.886;2023-12-29T09:17:43;7.81;103.79
34145;HTU21D;69555;53.014;8.886;2023-12-29T09:20:10;7.86;104.28
34145;HTU21D;69555;53.014;8.886;2023-12-29T09:22:37;7.91;104.57
34145;HTU21D;69555;53.014;8.886;2023-12-29T09:25:04;7.83;105.53
34145;HTU21D;69555;53.014;8.886;2023-12-29T09:27:31;7.74;107.22
34145;HTU21D;69555;53.014;8.886;2023-12-29T09:29:58;7.77;103.31
34145;HTU21D;69555;53.014;8.886;2023-12-29T09:32:24;7.64;104.07
34145;HTU21D;69555;53.014;8.886;2023-12-29T09:34:51;7.61;104.81
34145;HTU21D;69555;53.014;8.886;2023-12-29T09:37:18;7.74;104.90
34145;HTU21D;69555;53.014;8.886;2023-12-29T09:39:44;8.00;102.79
34145;HTU21D;69555;53.014;8.886;2023-12-29T09:42:19;8.29;102.25
34145;HTU21D;69555;53.014;8.886;2023-12-29T09:44:50;8.37;102.36
34145;HTU21D;69555;53.014;8.886;2023-12-29T09:47:22;8.47;102.45
34145;HTU21D;69555;53.014;8.886;2023-12-29T09:49:57;8.61;102.20
34145;HTU21D;69555;53.014;8.886;2023-12-29T09:52:24;8.65;102.03
34145;HTU21D;69555;53.014;8.886;2023-12-29T09:54:51;8.72;102.66
34145;HTU21D;69555;53.014;8.886;2023-12-29T09:57:18;8.80;100.36
34145;HTU21D;69555;53.014;8.886;2023-12-29T09:59:49;8.90;100.36
34145;HTU21D;69555;53.014;8.886;2023-12-29T10:02:17;8.87;99.13
34145;HTU21D;69555;53.014;8.886;2023-12-29T10:04:46;8.92;99.21
34145;HTU21D;69555;53.014;8.886;2023-12-29T10:07:35;8.93;98.27
34145;HTU21D;69555;53.014;8.886;2023-12-29T10:10:07;8.95;97.48
34145;HTU21D;69555;53.014;8.886;2023-12-29T10:12:39;9.00;97.90
34145;HTU21D;69555;53.014;8.886;2023-12-29T10:15:24;8.94;98.14
34145;HTU21D;69555;53.014;8.886;2023-12-29T10:21:24;8.82;100.51
34145;HTU21D;69555;53.014;8.886;2023-12-29T10:24:04;8.74;100.45
34145;HTU21D;69555;53.014;8.886;2023-12-29T10:26:35;8.77;97.27
34145;HTU21D;69555;53.014;8.886;2023-12-29T10:29:03;8.56;97.30
34145;HTU21D;69555;53.014;8.886;2023-12-29T10:31:29;8.39;99.18
34145;HTU21D;69555;53.014;8.886;2023-12-29T10:34:20;8.24;98.20
34145;HTU21D;69555;53.014;8.886;2023-12-29T10:36:48;8.11;96.56
34145;HTU21D;69555;53.014;8.886;2023-12-29T10:39:15;8.07;97.40
34145;HTU21D;69555;53.014;8.886;2023-12-29T10:41:42;7.92;96.07
34145;HTU21D;69555;53.014;8.886;2023-12-29T10:44:09;7.79;96.65
34145;HTU21D;69555;53.014;8.886;2023-12-29T10:46:36;7.84;98.03
34145;HTU21D;69555;53.014;8.886;2023-12-29T10:49:12;7.86;97.50
34145;HTU21D;69555;53.014;8.886;2023-12-29T10:51:40;7.94;97.74
34145;HTU21D;69555;53.014;8.886;2023-12-29T10:54:07;7.94;98.03
34145;HTU21D;69555;53.014;8.886;2023-12-29T10:56:33;7.94;97.97
34145;HTU21D;69555;53.014;8.886;2023-12-29T10:59:06;7.89;99.27
34145;HTU21D;69555;53.014;8.886;2023-12-29T11:01:35;7.68;97.66
34145;HTU21D;69555;53.014;8.886;2023-12-29T11:04:06;7.27;101.49
34145;HTU21D;69555;53.014;8.886;2023-12-29T11:06:44;7.35;101.47
34145;HTU21D;69555;53.014;8.886;2023-12-29T11:09:12;7.55;101.35
34145;HTU21D;69555;53.014;8.886;2023-12-29T11:11:39;7.59;102.60
34145;HTU21D;69555;53.014;8.886;2023-12-29T11:14:08;7.88;102.02
34145;HTU21D;69555;53.014;8.886;2023-12-29T11:16:36;7.97;102.33
34145;HTU21D;69555;53.014;8.886;2023-12-29T11:19:04;8.05;102.97
34145;HTU21D;69555;53.014;8.886;2023-12-29T11:21:32;8.33;102.44
34145;HTU21D;69555;53.014;8.886;2023-12-29T11:24:01;8.39;102.44
34145;HTU21D;69555;53.014;8.886;2023-12-29T11:26:28;8.51;102.42
34145;HTU21D;69555;53.014;8.886;2023-12-29T11:28:56;8.64;101.48
34145;HTU21D;69555;53.014;8.886;2023-12-29T11:31:22;8.72;101.34
34145;HTU21D;69555;53.014;8.886;2023-12-29T11:34:04;8.72;101.82
34145;HTU21D;69555;53.014;8.886;2023-12-29T11:36:36;8.85;100.15
34145;HTU21D;69555;53.014;8.886;2023-12-29T11:39:41;8.83;100.03
34145;HTU21D;69555;53.014;8.886;2023-12-29T11:44:38;8.85;99.94
34145;HTU21D;69555;53.014;8.886;2023-12-29T11:47:35;8.70;100.90
34145;HTU21D;69555;53.014;8.886;2023-12-29T11:50:02;8.64;100.05
34145;HTU21D;69555;53.014;8.886;2023-12-29T11:52:40;8.58;98.49
34145;HTU21D;69555;53.014;8.886;2023-12-29T11:55:18;8.45;100.01
34145;HTU21D;69555;53.014;8.886;2023-12-29T11:57:46;8.35;98.60
34145;HTU21D;69555;53.014;8.886;2023-12-29T12:00:13;8.20;100.54
34145;HTU21D;69555;53.014;8.886;2023-12-29T12:02:39;8.12;100.56
34145;HTU21D;69555;53.014;8.886;2023-12-29T12:05:10;8.08;100.41
34145;HTU21D;69555;53.014;8.886;2023-12-29T12:07:56;8.13;98.31
34145;HTU21D;69555;53.014;8.886;2023-12-29T12:10:30;8.09;99.82
34145;HTU21D;69555;53.014;8.886;2023-12-29T12:12:59;7.99;100.58
34145;HTU21D;69555;53.014;8.886;2023-12-29T12:15:31;8.01;99.67
34145;HTU21D;69555;53.014;8.886;2023-12-29T12:18:10;8.00;100.48
34145;HTU21D;69555;53.014;8.886;2023-12-29T12:20:38;7.98;101.15
34145;HTU21D;69555;53.014;8.886;2023-12-29T12:23:23;7.93;101.90
34145;HTU21D;69555;53.014;8.886;2023-12-29T12:25:57;7.89;101.21
34145;HTU21D;69555;53.014;8.886;2023-12-29T12:28:24;7.92;100.15
34145;HTU21D;69555;53.014;8.886;2023-12-29T12:30:50;7.91;100.78
34145;HTU21D;69555;53.014;8.886;2023-12-29T12:33:17;8.11;98.85
34145;HTU21D;69555;53.014;8.886;2023-12-29T12:35:43;8.12;99.58
34145;HTU21D;69555;53.014;8.886;2023-12-29T12:38:17;8.16;97.63
34145;HTU21D;69555;53.014;8.886;2023-12-29T12:40:48;8.23;96.61
34145;HTU21D;69555;53.014;8.886;2023-12-29T12:43:15;8.26;96.65
34145;HTU21D;69555;53.014;8.886;2023-12-29T12:45:48;8.37;95.54
34145;HTU21D;69555;53.014;8.886;2023-12-29T12:48:33;8.36;96.40
34145;HTU21D;69555;53.014;8.886;2023-12-29T12:51:01;8.26;97.89
34145;HTU21D;69555;53.014;8.886;2023-12-29T12:53:30;8.22;98.48
34145;HTU21D;69555;53.014;8.886;2023-12-29T12:55:57;8.31;98.03
34145;HTU21D;69555;53.014;8.886;2023-12-29T12:58:24;8.35;98.03
34145;HTU21D;69555;53.014;8.886;2023-12-29T13:00:57;8.34;99.13
34145;HTU21D;69555;53.014;8.886;2023-12-29T13:03:24;8.38;98.17
34145;HTU21D;69555;53.014;8.886;2023-12-29T13:05:51;8.35;99.06
34145;HTU21D;69555;53.014;8.886;2023-12-29T13:08:18;8.37;99.36
34145;HTU21D;69555;53.014;8.886;2023-12-29T13:10:45;8.38;99.26
34145;HTU21D;69555;53.014;8.886;2023-12-29T13:13:12;8.43;99.59
34145;HTU21D;69555;53.014;8.886;2023-12-29T13:15:48;8.36;100.25
34145;HTU21D;69555;53.014;8.886;2023-12-29T13:18:14;8.36;100.54
34145;HTU21D;69555;53.014;8.886;2023-12-29T13:20:47;8.35;101.24
34145;HTU21D;69555;53.014;8.886;2023-12-29T13:23:14;8.33;101.02
34145;HTU21D;69555;53.014;8.886;2023-12-29T13:25:43;8.32;101.64
34145;HTU21D;69555;53.014;8.886;2023-12-29T13:28:10;8.29;102.02
34145;HTU21D;69555;53.014;8.886;2023-12-29T13:30:37;8.34;101.80
34145;HTU21D;69555;53.014;8.886;2023-12-29T13:33:10;8.37;102.03
34145;HTU21D;69555;53.014;8.886;2023-12-29T13:35:44;8.39;102.20
34145;HTU21D;69555;53.014;8.886;2023-12-29T13:38:21;8.32;102.54
34145;HTU21D;69555;53.014;8.886;2023-12-29T13:41:04;8.35;102.66
34145;HTU21D;69555;53.014;8.886;2023-12-29T13:43:32;8.36;102.61
34145;HTU21D;69555;53.014;8.886;2023-12-29T13:46:00;8.31;102.86
34145;HTU21D;69555;53.014;8.886;2023-12-29T13:48:28;8.32;102.63
34145;HTU21D;69555;53.014;8.886;2023-12-29T13:50:55;8.33;102.71
34145;HTU21D;69555;53.014;8.886;2023-12-29T13:53:22;8.33;102.44
34145;HTU21D;69555;53.014;8.886;2023-12-29T13:55:49;8.29;102.59
34145;HTU21D;69555;53.014;8.886;2023-12-29T13:58:16;8.31;102.53
34145;HTU21D;69555;53.014;8.886;2023-12-29T14:00:45;8.32;102.09
34145;HTU21D;69555;53.014;8.886;2023-12-29T14:03:47;8.31;101.95
34145;HTU21D;69555;53.014;8.886;2023-12-29T14:06:29;8.35;101.91
34145;HTU21D;69555;53.014;8.886;2023-12-29T14:08:56;8.32;101.98
34145;HTU21D;69555;53.014;8.886;2023-12-29T14:11:23;8.26;102.30
34145;HTU21D;69555;53.014;8.886;2023-12-29T14:13:49;8.37;101.48
34145;HTU21D;69555;53.014;8.886;2023-12-29T14:16:16;8.35;101.52
34145;HTU21D;69555;53.014;8.886;2023-12-29T14:18:56;8.45;100.65
34145;HTU21D;69555;53.014;8.886;2023-12-29T14:21:32;8.49;100.16
34145;HTU21D;69555;53.014;8.886;2023-12-29T14:24:11;8.51;99.51
34145;HTU21D;69555;53.014;8.886;2023-12-29T14:26:40;8.61;98.65
34145;HTU21D;69555;53.014;8.886;2023-12-29T14:29:09;8.72;97.42
34145;HTU21D;69555;53.014;8.886;2023-12-29T14:31:37;8.73;97.26
34145;HTU21D;69555;53.014;8.886;2023-12-29T14:34:07;8.79;95.63
34145;HTU21D;69555;53.014;8.886;2023-12-29T14:36:34;8.76;96.07
34145;HTU21D;69555;53.014;8.886;2023-12-29T14:38:59;8.82;95.23
34145;HTU21D;69555;53.014;8.886;2023-12-29T14:41:26;8.78;95.69
34145;HTU21D;69555;53.014;8.886;2023-12-29T14:43:54;8.74;95.32
34145;HTU21D;69555;53.014;8.886;2023-12-29T14:46:21;8.72;95.46
34145;HTU21D;69555;53.014;8.886;2023-12-29T14:48:47;8.77;95.21
34145;HTU21D;69555;53.014;8.886;2023-12-29T14:51:15;8.72;95.35
34145;HTU21D;69555;53.014;8.886;2023-12-29T14:53:50;8.81;94.20
34145;HTU21D;69555;53.014;8.886;2023-12-29T14:56:18;8.82;94.16
34145;HTU21D;69555;53.014;8.886;2023-12-29T14:58:44;8.80;94.52
34145;HTU21D;69555;53.014;8.886;2023-12-29T15:01:12;8.81;94.02
34145;HTU21D;69555;53.014;8.886;2023-12-29T15:03:38;8.86;94.09
34145;HTU21D;69555;53.014;8.886;2023-12-29T15:06:05;8.83;93.88
34145;HTU21D;69555;53.014;8.886;2023-12-29T15:08:32;8.73;94.55
34145;HTU21D;69555;53.014;8.886;2023-12-29T15:11:05;8.78;94.75
34145;HTU21D;69555;53.014;8.886;2023-12-29T15:13:33;8.75;94.73
34145;HTU21D;69555;53.014;8.886;2023-12-29T15:16:00;8.75;94.63
34145;HTU21D;69555;53.014;8.886;2023-12-29T15:18:27;8.76;94.72
34145;HTU21D;69555;53.014;8.886;2023-12-29T15:20:56;8.85;94.26
34145;HTU21D;69555;53.014;8.886;2023-12-29T15:23:23;8.85;94.43
34145;HTU21D;69555;53.014;8.886;2023-12-29T15:25:50;8.74;95.28
34145;HTU21D;69555;53.014;8.886;2023-12-29T15:28:17;8.80;95.16
34145;HTU21D;69555;53.014;8.886;2023-12-29T15:30:46;8.76;95.36
34145;HTU21D;69555;53.014;8.886;2023-12-29T15:33:13;8.75;95.62
34145;HTU21D;69555;53.014;8.886;2023-12-29T15:35:40;8.73;95.89
34145;HTU21D;69555;53.014;8.886;2023-12-29T15:38:08;8.77;95.97
34145;HTU21D;69555;53.014;8.886;2023-12-29T15:40:35;8.74;96.36